Time;durP1;ratioP1;P1;durP2;ratioP2;P2;SDS_P1;SDS_P2;PMS_P1;PMS_P2;Temp;Humidity;BMP_temperature;BMP_pressure;BME280_temperature;BME280_humidity;BME280_pressure;Samples;Min_cycle;Max_cycle;Signal;HPM_P1;HPM_P2
2024/01/11 00:01:18;;;;;;;;;;;11.20;38.60;;;11.20;41.97;102239.78;5091796;28;19931;-36
2024/01/11 00:03:46;;;;;;;;;;;11.10;38.50;;;11.31;41.59;102260.59;5092946;28;19966;-36
2024/01/11 00:06:16;;;;;;;;;;;11.10;38.50;;;11.31;41.31;102273.13;5092488;28;20051;-36
2024/01/11 00:08:44;;;;;;;;;;;11.20;38.60;;;11.31;41.72;102264.00;5092556;28;19955;-36
2024/01/11 00:11:12;;;;;;;;;;;11.10;38.50;;;11.30;41.32;102257.16;5091484;28;19927;-37
2024/01/11 00:13:43;;;;;;;;;;;11.20;38.60;;;11.28;41.90;102259.44;5095839;28;20006;-36
2024/01/11 00:16:11;;;;;;;;;;;11.10;38.60;;;11.29;41.33;102256.25;5095929;28;19924;-36
2024/01/11 00:18:39;;;;;;;;;;;11.20;38.70;;;11.31;41.51;102250.53;5095902;28;20027;-36
2024/01/11 00:21:07;;;;;;;;;;;11.20;38.60;;;11.28;41.58;102254.41;5095578;28;20007;-36
2024/01/11 00:23:37;;;;;;;;;;;11.20;38.60;;;11.28;41.86;102249.38;5095793;28;19928;-36
2024/01/11 00:26:05;;;;;;;;;;;11.10;38.50;;;11.31;41.49;102251.47;5095866;28;19936;-36
2024/01/11 00:28:33;;;;;;;;;;;11.10;38.40;;;11.33;41.39;102259.19;5095967;28;19924;-36
2024/01/11 00:31:01;;;;;;;;;;;11.10;38.50;;;11.32;41.78;102259.91;5086655;28;20039;-36
2024/01/11 00:33:29;;;;;;;;;;;11.20;38.50;;;11.35;41.26;102250.31;5095834;28;20481;-36
2024/01/11 00:35:57;;;;;;;;;;;11.20;38.50;;;11.32;41.46;102245.72;5095634;28;19974;-36
2024/01/11 00:38:25;;;;;;;;;;;11.20;38.50;;;11.32;41.42;102249.88;5095762;28;19971;-36
2024/01/11 00:40:54;;;;;;;;;;;11.20;38.50;;;11.34;41.66;102258.53;5094988;28;19930;-36
2024/01/11 00:43:22;;;;;;;;;;;11.20;38.50;;;11.35;41.06;102260.34;5095726;28;19924;-37
2024/01/11 00:45:50;;;;;;;;;;;11.20;38.40;;;11.31;40.96;102253.97;5095386;28;19924;-36
2024/01/11 00:48:18;;;;;;;;;;;11.20;38.30;;;11.31;41.87;102253.97;5095206;28;20361;-36
2024/01/11 00:50:46;;;;;;;;;;;11.20;38.40;;;11.32;41.27;102252.38;5094791;28;19931;-36
2024/01/11 00:53:14;;;;;;;;;;;11.20;38.50;;;11.32;41.40;102255.78;5095471;28;19931;-36
2024/01/11 00:55:43;;;;;;;;;;;11.20;38.50;;;11.34;41.05;102253.50;5095193;28;19933;-36
2024/01/11 00:58:12;;;;;;;;;;;11.20;38.50;;;11.31;41.66;102246.44;5095460;28;19924;-36
2024/01/11 01:00:40;;;;;;;;;;;11.20;38.40;;;11.32;41.42;102244.84;5094293;28;19950;-36
2024/01/11 01:03:08;;;;;;;;;;;11.20;38.50;;;11.32;41.31;102247.38;5095333;28;19973;-36
2024/01/11 01:05:36;;;;;;;;;;;11.20;38.40;;;11.33;41.35;102251.66;5095146;28;19928;-36
2024/01/11 01:08:04;;;;;;;;;;;11.20;38.50;;;11.31;41.43;102248.03;5087188;28;19924;-36
2024/01/11 01:10:32;;;;;;;;;;;11.20;38.50;;;11.34;41.67;102243.47;5094343;28;19981;-36
2024/01/11 01:13:00;;;;;;;;;;;11.10;38.40;;;11.29;41.10;102241.19;5094866;28;20311;-36
2024/01/11 01:15:29;;;;;;;;;;;11.10;38.40;;;11.29;41.88;102243.69;5094861;28;19977;-36
2024/01/11 01:17:57;;;;;;;;;;;11.20;38.60;;;11.34;41.39;102239.38;5094856;28;19924;-36
2024/01/11 01:20:25;;;;;;;;;;;11.10;38.40;;;11.34;41.80;102238.44;5094257;28;19962;-35
2024/01/11 01:22:53;;;;;;;;;;;11.10;38.40;;;11.32;41.42;102244.84;5094593;28;20375;-35
2024/01/11 01:25:21;;;;;;;;;;;11.10;38.50;;;11.31;41.88;102243.03;5094457;28;19931;-35
2024/01/11 01:27:49;;;;;;;;;;;11.20;38.60;;;11.25;41.85;102228.84;5094327;28;19924;-36
2024/01/11 01:30:17;;;;;;;;;;;11.10;38.50;;;11.31;41.50;102235.50;5094112;28;20018;-35
2024/01/11 01:32:47;;;;;;;;;;;11.10;38.50;;;11.31;41.41;102240.50;5094202;28;19971;-35
2024/01/11 01:35:15;;;;;;;;;;;11.20;38.50;;;11.29;41.64;102246.19;5094642;28;19925;-36
2024/01/11 01:37:43;;;;;;;;;;;11.20;38.50;;;11.30;41.52;102242.09;5094707;28;20294;-36
2024/01/11 01:40:11;;;;;;;;;;;11.10;38.40;;;11.29;41.89;102251.22;5093459;28;20019;-35
2024/01/11 01:42:42;;;;;;;;;;;11.10;38.40;;;11.28;41.93;102254.41;5094174;28;19961;-36
2024/01/11 01:45:11;;;;;;;;;;;11.20;38.50;;;11.28;41.56;102254.41;5094462;28;19928;-35
2024/01/11 01:47:38;;;;;;;;;;;11.10;38.40;;;11.23;41.28;102245.28;5094144;28;20018;-36
2024/01/11 01:50:08;;;;;;;;;;;11.20;38.50;;;11.29;41.91;102258.75;5093764;28;20022;-35
2024/01/11 01:52:37;;;;;;;;;;;11.20;38.50;;;11.28;41.82;102259.44;5094060;28;19973;-35
2024/01/11 01:55:05;;;;;;;;;;;11.10;38.40;;;11.29;41.79;102261.25;5094244;28;19924;-36
2024/01/11 01:57:33;;;;;;;;;;;11.10;38.30;;;11.22;41.47;102253.47;5094569;28;20015;-36
2024/01/11 02:00:00;;;;;;;;;;;11.20;38.40;;;11.34;41.34;102268.56;5092877;28;19931;-36
2024/01/11 02:02:28;;;;;;;;;;;11.20;38.50;;;11.32;41.63;102269.94;5093574;28;19924;-35
2024/01/11 02:04:56;;;;;;;;;;;11.20;38.40;;;11.27;41.79;102262.59;5094458;28;19928;-35
2024/01/11 02:07:26;;;;;;;;;;;11.10;38.40;;;11.29;41.60;102256.25;5093473;28;20014;-36
2024/01/11 02:09:53;;;;;;;;;;;11.10;38.30;;;11.29;41.28;102251.22;5093304;28;19963;-37
2024/01/11 02:12:21;;;;;;;;;;;11.20;38.40;;;11.30;41.37;102252.13;5094122;28;19931;-36
2024/01/11 02:14:49;;;;;;;;;;;11.20;38.40;;;11.34;41.28;102258.53;5093655;28;20546;-35
2024/01/11 02:17:17;;;;;;;;;;;11.20;38.30;;;11.33;40.93;102254.19;5093949;28;20405;-35
2024/01/11 02:19:45;;;;;;;;;;;11.20;38.40;;;11.31;41.07;102253.97;5092610;28;19931;-35
2024/01/11 02:22:24;;;;;;;;;;;11.20;38.40;;;11.32;41.45;102259.91;5093571;28;19924;-35
2024/01/11 02:24:53;;;;;;;;;;;11.20;38.40;;;11.32;41.42;102250.75;5093753;28;19985;-35
2024/01/11 02:27:21;;;;;;;;;;;11.20;39.00;;;11.34;41.75;102253.50;5093676;28;19924;-35
2024/01/11 02:29:49;;;;;;;;;;;11.10;38.30;;;11.33;41.25;102246.66;5092615;28;19924;-35
2024/01/11 02:32:17;;;;;;;;;;;11.10;38.30;;;11.33;41.41;102256.69;5093127;28;20012;-35
2024/01/11 02:34:44;;;;;;;;;;;11.20;38.30;;;11.31;41.35;102255.56;5092885;28;19977;-35
2024/01/11 02:37:12;;;;;;;;;;;11.10;38.30;;;11.27;41.57;102252.56;5093658;28;20011;-35
2024/01/11 02:39:40;;;;;;;;;;;11.10;38.30;;;11.32;41.18;102244.84;5092718;28;19974;-36
2024/01/11 02:42:09;;;;;;;;;;;11.10;38.30;;;11.28;41.49;102249.38;5084945;28;19935;-35
2024/01/11 02:44:37;;;;;;;;;;;11.20;38.40;;;11.28;41.58;102253.50;5092976;28;20015;-35
2024/01/11 02:47:05;;;;;;;;;;;11.10;38.30;;;11.31;41.71;102255.56;5092937;28;20184;-35
2024/01/11 02:49:33;;;;;;;;;;;11.10;38.30;;;11.31;41.39;102258.06;5092746;28;19931;-35
2024/01/11 02:52:01;;;;;;;;;;;11.10;38.30;;;11.29;41.21;102270.38;5092982;28;19963;-35
2024/01/11 02:54:29;;;;;;;;;;;11.20;38.30;;;11.26;41.62;102260.78;5093131;28;19930;-35
2024/01/11 02:56:57;;;;;;;;;;;11.10;38.30;;;11.28;41.36;102261.94;5092931;28;19928;-35
2024/01/11 02:59:26;;;;;;;;;;;11.10;38.30;;;11.29;41.84;102266.28;5092259;28;19924;-35
2024/01/11 03:01:54;;;;;;;;;;;11.10;38.30;;;11.24;41.27;102249.63;5092783;28;19924;-35
2024/01/11 03:04:22;;;;;;;;;;;11.20;38.30;;;11.26;41.25;102255.75;5092987;28;19977;-35
2024/01/11 03:06:50;;;;;;;;;;;11.10;38.30;;;11.27;41.35;102252.56;5092714;28;20015;-35
2024/01/11 03:09:18;;;;;;;;;;;11.20;38.40;;;11.23;41.57;102245.28;5092233;28;19928;-35
2024/01/11 03:11:46;;;;;;;;;;;11.10;38.30;;;11.28;41.39;102246.88;5092614;28;20125;-35
2024/01/11 03:14:14;;;;;;;;;;;11.10;38.40;;;11.32;41.31;102252.38;5092954;28;19924;-35
2024/01/11 03:16:43;;;;;;;;;;;11.10;38.20;;;11.28;41.17;102263.53;5092793;28;20396;-35
2024/01/11 03:19:11;;;;;;;;;;;11.10;38.20;;;11.27;41.67;102255.09;5085077;28;20011;-35
2024/01/11 03:21:42;;;;;;;;;;;11.10;38.30;;;11.28;41.35;102263.53;5092400;28;19963;-35
2024/01/11 03:24:10;;;;;;;;;;;11.10;38.30;;;11.29;41.13;102267.88;5084262;28;19924;-35
2024/01/11 03:26:38;;;;;;;;;;;11.10;38.30;;;11.27;41.83;102276.75;5092960;28;20018;-36
2024/01/11 03:29:06;;;;;;;;;;;11.10;38.30;;;11.25;41.41;102268.97;5092807;28;20056;-35
2024/01/11 03:31:34;;;;;;;;;;;11.10;38.30;;;11.26;41.12;102270.81;5092302;28;20050;-35
2024/01/11 03:34:03;;;;;;;;;;;11.10;38.30;;;11.33;41.45;102289.31;5092334;28;20291;-35
2024/01/11 03:36:31;;;;;;;;;;;11.10;38.30;;;11.24;41.38;102292.28;5092771;28;20640;-36
2024/01/11 03:38:59;;;;;;;;;;;11.10;38.30;;;11.22;41.40;102272.63;5092479;28;19925;-35
2024/01/11 03:41:27;;;;;;;;;;;11.10;38.40;;;10.96;41.70;102215.97;5092237;28;19977;-35
2024/01/11 03:43:54;;;;;;;;;;;11.10;38.30;;;11.25;41.38;102284.03;5092259;28;20345;-35
2024/01/11 03:46:22;;;;;;;;;;;11.10;38.30;;;11.27;41.43;102282.69;5092526;28;19931;-36
2024/01/11 03:48:50;;;;;;;;;;;11.10;38.30;;;11.24;41.33;102282.22;5095929;28;20306;-36
2024/01/11 03:51:20;;;;;;;;;;;11.10;38.30;;;11.25;41.20;102279.00;5095863;28;19990;-36
2024/01/11 03:53:48;;;;;;;;;;;11.10;38.90;;;11.23;41.00;102275.38;5096305;28;20056;-36
2024/01/11 03:56:16;;;;;;;;;;;11.10;38.30;;;11.25;41.16;102279.00;5096368;28;19936;-36
2024/01/11 03:58:44;;;;;;;;;;;11.10;38.20;;;11.24;41.55;102272.19;5096557;28;19924;-36
2024/01/11 04:01:12;;;;;;;;;;;11.10;38.30;;;11.20;41.00;102274.91;5087340;28;20396;-36
2024/01/11 04:03:42;;;;;;;;;;;11.10;38.30;;;11.21;41.47;102275.81;5096242;28;19931;-36
2024/01/11 04:06:10;;;;;;;;;;;11.10;38.30;;;11.23;41.35;102279.47;5096426;28;19946;-36
2024/01/11 04:08:39;;;;;;;;;;;11.10;38.30;;;11.20;41.23;102279.91;5096311;28;19924;-36
2024/01/11 04:11:07;;;;;;;;;;;11.00;38.20;;;11.19;41.07;102288.13;5095288;28;19938;-35
2024/01/11 04:13:35;;;;;;;;;;;11.00;38.20;;;11.25;41.50;102296.56;5096178;28;19928;-36
2024/01/11 04:16:05;;;;;;;;;;;11.00;38.20;;;11.20;41.60;102294.97;5095977;28;19925;-35
2024/01/11 04:18:33;;;;;;;;;;;11.00;38.10;;;11.20;40.96;102289.94;5095813;28;20314;-35
2024/01/11 04:21:01;;;;;;;;;;;11.00;38.20;;;11.20;41.58;102294.97;5095367;28;19924;-36
2024/01/11 04:23:29;;;;;;;;;;;11.10;38.20;;;11.19;41.25;102295.66;5096027;28;20349;-35
2024/01/11 04:25:58;;;;;;;;;;;11.10;38.20;;;11.19;41.23;102298.16;5095702;28;19963;-35
2024/01/11 04:28:26;;;;;;;;;;;11.00;38.20;;;11.21;41.66;102296.81;5095880;28;19983;-35
2024/01/11 04:30:54;;;;;;;;;;;11.10;38.20;;;11.23;41.44;102302.06;5094678;28;20380;-36
2024/01/11 04:33:22;;;;;;;;;;;11.10;38.20;;;11.23;41.32;102310.50;5095800;28;19924;-36
2024/01/11 04:35:50;;;;;;;;;;;11.00;38.20;;;11.23;41.56;102309.59;5095527;28;19931;-36
2024/01/11 04:38:18;;;;;;;;;;;11.10;38.20;;;11.24;41.03;102308.91;5095410;28;19978;-35
2024/01/11 04:40:46;;;;;;;;;;;11.00;38.20;;;11.22;40.89;102306.16;5094346;28;19935;-36
2024/01/11 04:43:16;;;;;;;;;;;11.10;38.10;;;11.23;41.42;102308.00;5086569;28;19935;-36
2024/01/11 04:45:43;;;;;;;;;;;11.10;38.20;;;11.23;41.55;102307.09;5094977;28;20042;-35
2024/01/11 04:48:11;;;;;;;;;;;11.10;38.20;;;11.23;40.95;102315.53;5094844;28;19924;-35
2024/01/11 04:50:39;;;;;;;;;;;11.10;38.10;;;11.23;40.94;102330.59;5094170;28;19928;-36
2024/01/11 04:53:08;;;;;;;;;;;11.10;38.20;;;11.23;41.04;102333.09;5094595;28;19971;-35
2024/01/11 04:55:35;;;;;;;;;;;11.10;38.20;;;11.21;41.16;102336.94;5094536;28;19924;-36
2024/01/11 04:58:04;;;;;;;;;;;11.10;38.10;;;11.24;41.63;102327.41;5093972;28;19970;-36
2024/01/11 05:00:33;;;;;;;;;;;11.10;38.20;;;11.20;41.19;102330.09;5093934;28;20020;-36
2024/01/11 05:03:01;;;;;;;;;;;11.10;38.20;;;11.21;41.22;102344.47;5094377;28;19977;-36
2024/01/11 05:05:29;;;;;;;;;;;11.10;38.20;;;11.23;41.30;102342.22;5094507;28;20011;-36
2024/01/11 05:07:58;;;;;;;;;;;11.00;38.10;;;11.22;41.45;102348.81;5094308;28;20394;-36
2024/01/11 05:10:25;;;;;;;;;;;11.10;38.20;;;11.18;41.27;102344.03;5093701;28;20003;-36
2024/01/11 05:12:53;;;;;;;;;;;11.00;38.10;;;11.21;41.25;102352.00;5094548;28;19928;-37
2024/01/11 05:15:21;;;;;;;;;;;11.10;38.10;;;11.22;41.57;102353.84;5094565;28;20016;-35
2024/01/11 05:17:51;;;;;;;;;;;11.10;38.10;;;11.21;41.01;102361.13;5094413;28;20003;-36
2024/01/11 05:20:19;;;;;;;;;;;11.00;38.10;;;11.19;41.13;102360.88;5085690;28;19928;-36
2024/01/11 05:22:47;;;;;;;;;;;11.00;38.10;;;11.21;41.53;102376.19;5094109;28;19924;-36
2024/01/11 05:25:15;;;;;;;;;;;11.10;38.20;;;11.20;41.02;102370.25;5093756;28;19924;-36
2024/01/11 05:27:43;;;;;;;;;;;11.00;38.10;;;11.18;41.53;102364.09;5094239;28;20011;-36
2024/01/11 05:30:12;;;;;;;;;;;11.00;38.10;;;11.22;41.04;102357.94;5093423;28;19972;-35
2024/01/11 05:32:40;;;;;;;;;;;11.00;38.10;;;11.17;41.59;102349.72;5094116;28;20268;-35
2024/01/11 05:35:10;;;;;;;;;;;11.00;38.10;;;11.21;41.54;102336.94;5093704;28;19967;-35
2024/01/11 05:37:38;;;;;;;;;;;11.00;38.10;;;11.19;40.61;102328.25;5094085;28;20442;-35
2024/01/11 05:40:07;;;;;;;;;;;11.10;38.10;;;11.18;41.23;102331.47;5093240;28;19928;-35
2024/01/11 05:42:35;;;;;;;;;;;11.10;38.10;;;11.21;41.39;102329.41;5093907;28;20360;-36
2024/01/11 05:45:04;;;;;;;;;;;11.10;38.10;;;11.24;40.77;102309.84;5093702;28;20031;-35
2024/01/11 05:47:32;;;;;;;;;;;11.10;38.00;;;11.20;41.17;102299.97;5093738;28;20387;-36
2024/01/11 05:50:00;;;;;;;;;;;11.10;38.00;;;11.23;41.13;102302.06;5092970;28;19924;-36
2024/01/11 05:52:29;;;;;;;;;;;11.10;38.00;;;11.20;41.41;102294.97;5093467;28;19935;-36
2024/01/11 05:54:57;;;;;;;;;;;11.00;37.90;;;11.20;40.77;102299.97;5093536;28;19977;-35
2024/01/11 05:57:25;;;;;;;;;;;11.10;38.00;;;11.18;41.34;102310.50;5093689;28;20018;-35
2024/01/11 05:59:53;;;;;;;;;;;11.00;37.90;;;11.19;41.59;102329.88;5092830;28;19930;-35
2024/01/11 06:02:22;;;;;;;;;;;11.00;37.90;;;11.20;40.75;102335.13;5085433;28;20011;-35
2024/01/11 06:04:50;;;;;;;;;;;11.10;38.00;;;11.20;40.98;102354.28;5093013;28;19924;-36
2024/01/11 06:07:19;;;;;;;;;;;11.10;38.00;;;11.21;41.04;102361.13;5093059;28;20394;-36
2024/01/11 06:09:48;;;;;;;;;;;11.10;38.00;;;11.18;41.17;102351.56;5091959;28;19974;-36
2024/01/11 06:12:16;;;;;;;;;;;11.10;38.00;;;11.18;41.13;102356.56;5093024;28;19931;-36
2024/01/11 06:14:44;;;;;;;;;;;11.00;37.90;;;11.18;40.99;102346.53;5093049;28;20304;-36
2024/01/11 06:17:12;;;;;;;;;;;11.00;38.00;;;11.20;41.38;102347.66;5092777;28;20320;-35
2024/01/11 06:19:40;;;;;;;;;;;11.00;37.90;;;11.17;41.22;102353.81;5092734;28;19924;-35
2024/01/11 06:22:08;;;;;;;;;;;11.10;38.00;;;11.19;41.06;102348.34;5092847;28;19946;-35
2024/01/11 06:24:36;;;;;;;;;;;11.00;38.00;;;11.19;41.36;102343.31;5092854;28;19977;-35
2024/01/11 06:27:05;;;;;;;;;;;11.00;38.60;;;11.16;41.23;102332.81;5092540;28;19977;-35
2024/01/11 06:29:33;;;;;;;;;;;11.00;38.00;;;11.19;40.97;102338.28;5092165;28;19924;-36
2024/01/11 06:32:02;;;;;;;;;;;11.10;38.10;;;11.16;41.36;102337.84;5092323;28;19958;-35
2024/01/11 06:34:30;;;;;;;;;;;11.00;38.00;;;11.18;41.31;102346.53;5092588;28;20010;-35
2024/01/11 06:36:58;;;;;;;;;;;11.00;38.00;;;11.19;41.33;102344.94;5092639;28;19935;-35
2024/01/11 06:39:26;;;;;;;;;;;11.00;37.90;;;11.16;41.27;102351.97;5092099;28;20020;-35
2024/01/11 06:41:53;;;;;;;;;;;11.00;37.90;;;11.15;41.56;102371.13;5092284;28;19931;-35
2024/01/11 06:44:23;;;;;;;;;;;11.00;38.00;;;11.17;41.43;102374.81;5092443;28;20363;-36
2024/01/11 06:46:51;;;;;;;;;;;11.00;38.00;;;11.13;41.04;102372.47;5092839;28;19931;-36
2024/01/11 06:49:19;;;;;;;;;;;11.00;38.00;;;11.10;41.36;102367.00;5091641;28;20002;-36
2024/01/11 06:51:47;;;;;;;;;;;11.00;37.90;;;11.12;41.33;102375.69;5091906;28;20341;-36
2024/01/11 06:54:14;;;;;;;;;;;11.00;38.00;;;11.13;41.18;102377.50;5091897;28;20362;-36
2024/01/11 06:56:42;;;;;;;;;;;11.00;38.00;;;11.16;40.89;102377.97;5092040;28;20293;-35
2024/01/11 06:59:10;;;;;;;;;;;11.00;38.00;;;11.16;40.93;102382.09;5092847;28;19957;-35
2024/01/11 07:01:40;;;;;;;;;;;11.00;38.00;;;11.17;41.02;102379.81;5091773;28;19924;-35
2024/01/11 07:04:08;;;;;;;;;;;11.00;38.00;;;11.15;41.36;102376.16;5091978;28;20459;-35
2024/01/11 07:06:36;;;;;;;;;;;11.00;38.00;;;11.15;40.85;102391.19;5092219;28;19925;-35
2024/01/11 07:09:05;;;;;;;;;;;11.00;38.00;;;11.12;40.77;102387.31;5092042;28;19924;-36
2024/01/11 07:11:33;;;;;;;;;;;11.00;38.00;;;11.11;41.56;102388.91;5091260;28;19935;-36
2024/01/11 07:14:01;;;;;;;;;;;11.00;38.00;;;11.13;41.00;102377.50;5092117;28;19928;-35
2024/01/11 07:16:29;;;;;;;;;;;11.00;38.00;;;11.11;40.98;102376.38;5092143;28;19924;-36
2024/01/11 07:18:59;;;;;;;;;;;10.90;37.90;;;11.11;41.00;102373.84;5091952;28;19924;-36
2024/01/11 07:21:31;;;;;;;;;;;11.00;38.00;;;11.13;41.58;102372.47;5091151;28;19932;-36
2024/01/11 07:23:59;;;;;;;;;;;11.00;38.10;;;11.12;41.25;102364.75;5092264;28;19928;-35
2024/01/11 07:26:27;;;;;;;;;;;10.90;37.90;;;11.09;41.54;102352.63;5092101;28;20322;-35
2024/01/11 07:28:55;;;;;;;;;;;11.00;38.00;;;11.11;41.45;102358.81;5092014;28;19924;-36
2024/01/11 07:31:23;;;;;;;;;;;10.90;38.00;;;11.12;41.13;102349.69;5082630;28;19928;-36
2024/01/11 07:33:51;;;;;;;;;;;10.90;37.90;;;11.10;40.68;102341.91;5091878;28;19924;-36
2024/01/11 07:36:21;;;;;;;;;;;11.00;37.90;;;11.15;41.00;102352.66;5091598;28;19924;-36
2024/01/11 07:38:49;;;;;;;;;;;10.90;38.00;;;11.13;40.64;102341.44;5092371;28;19924;-36
2024/01/11 07:41:17;;;;;;;;;;;10.90;37.90;;;11.10;40.76;102346.00;5091496;28;19930;-36
2024/01/11 07:43:45;;;;;;;;;;;11.00;38.60;;;11.11;41.25;102343.75;5092051;28;19970;-35
2024/01/11 07:46:21;;;;;;;;;;;10.90;37.90;;;11.11;41.04;102358.81;5092298;28;20262;-35
2024/01/11 07:49:03;;;;;;;;;;;10.90;37.90;;;11.09;41.27;102370.19;5091599;28;19928;-35
2024/01/11 07:51:33;;;;;;;;;;;10.90;37.90;;;11.13;41.54;102372.47;5091317;28;19924;-36
2024/01/11 07:54:01;;;;;;;;;;;10.90;37.90;;;11.11;41.25;102363.81;5091500;28;20349;-35
2024/01/11 07:56:28;;;;;;;;;;;11.00;38.00;;;11.12;41.33;102370.69;5091736;28;19930;-35
2024/01/11 07:58:56;;;;;;;;;;;11.00;38.00;;;11.11;41.33;102363.81;5091603;28;19924;-35
2024/01/11 08:01:24;;;;;;;;;;;11.00;37.90;;;11.13;40.75;102372.47;5090624;28;20015;-35
2024/01/11 08:03:52;;;;;;;;;;;10.90;37.80;;;11.10;41.31;102387.06;5091725;28;19927;-36
2024/01/11 08:06:21;;;;;;;;;;;10.90;37.80;;;11.11;41.39;102388.91;5091159;28;20380;-35
2024/01/11 08:08:51;;;;;;;;;;;11.00;37.90;;;11.11;40.94;102383.88;5091661;28;19924;-36
2024/01/11 08:11:20;;;;;;;;;;;11.00;37.90;;;11.09;40.90;102395.28;5091322;28;19924;-36
2024/01/11 08:13:48;;;;;;;;;;;11.00;37.90;;;11.13;41.02;102392.53;5091495;28;19924;-35
2024/01/11 08:16:17;;;;;;;;;;;10.90;37.90;;;11.10;41.24;102397.09;5091536;28;19967;-36
2024/01/11 08:18:45;;;;;;;;;;;10.90;37.90;;;11.08;41.17;102400.97;5091652;28;19967;-36
2024/01/11 08:21:14;;;;;;;;;;;10.90;37.90;;;11.11;40.49;102398.94;5090672;28;19978;-35
2024/01/11 08:23:44;;;;;;;;;;;10.90;37.90;;;11.11;40.91;102408.97;5091534;28;19967;-35
2024/01/11 08:26:14;;;;;;;;;;;11.00;38.00;;;11.13;41.37;102412.63;5091216;28;19924;-35
2024/01/11 08:28:42;;;;;;;;;;;11.00;38.00;;;11.15;41.33;102411.28;5091380;28;19928;-35
2024/01/11 08:31:10;;;;;;;;;;;11.00;38.00;;;11.12;40.80;102415.84;5090311;28;19987;-35
2024/01/11 08:33:38;;;;;;;;;;;11.00;37.90;;;11.10;41.01;102404.63;5092870;28;19931;-35
2024/01/11 08:36:07;;;;;;;;;;;11.00;38.00;;;11.14;41.02;102404.41;5094761;28;19927;-36
2024/01/11 08:38:36;;;;;;;;;;;11.00;38.00;;;11.14;40.88;102409.44;5095150;28;19927;-36
2024/01/11 08:41:04;;;;;;;;;;;11.00;38.00;;;11.13;41.28;102407.59;5093982;28;19947;-36
2024/01/11 08:43:33;;;;;;;;;;;11.00;38.00;;;11.15;41.32;102411.28;5094889;28;19924;-35
2024/01/11 08:46:02;;;;;;;;;;;11.00;37.90;;;11.16;41.14;102410.59;5094597;28;20341;-35
2024/01/11 08:48:29;;;;;;;;;;;11.00;37.90;;;11.15;40.83;102416.28;5086816;28;19925;-35
2024/01/11 08:50:58;;;;;;;;;;;11.00;37.90;;;11.18;41.11;102421.81;5094055;28;19924;-36
2024/01/11 08:53:26;;;;;;;;;;;11.00;37.90;;;11.15;40.99;102416.28;5094975;28;19945;-35
2024/01/11 08:55:54;;;;;;;;;;;11.00;37.90;;;11.17;40.92;102419.03;5094761;28;19933;-36
2024/01/11 08:58:22;;;;;;;;;;;11.00;38.00;;;11.19;41.57;102413.56;5094649;28;19934;-35
2024/01/11 09:00:51;;;;;;;;;;;11.00;38.00;;;11.18;41.07;102411.75;5093956;28;19939;-36
2024/01/11 09:03:19;;;;;;;;;;;11.00;38.00;;;11.23;41.47;102420.91;5094484;28;19947;-36
2024/01/11 09:05:47;;;;;;;;;;;11.10;38.10;;;11.23;41.00;102425.03;5094578;28;19969;-35
2024/01/11 09:08:15;;;;;;;;;;;11.10;38.10;;;11.22;41.39;102434.13;5094058;28;19975;-35
2024/01/11 09:10:43;;;;;;;;;;;11.10;38.10;;;11.23;41.03;102435.97;5093951;28;20294;-36
2024/01/11 09:13:11;;;;;;;;;;;11.10;38.10;;;11.16;41.42;102433.19;5094229;28;19959;-36
2024/01/11 09:15:41;;;;;;;;;;;11.10;38.20;;;11.15;41.93;102450.50;5094494;28;19928;-35
2024/01/11 09:18:11;;;;;;;;;;;11.10;38.20;;;11.13;41.93;102446.81;5093976;28;19977;-36
2024/01/11 09:20:39;;;;;;;;;;;11.10;38.30;;;11.08;41.81;102448.63;5093536;28;20276;-35
2024/01/11 09:23:07;;;;;;;;;;;11.00;38.30;;;11.06;41.61;102455.03;5094186;28;19993;-36
2024/01/11 09:25:35;;;;;;;;;;;11.00;38.40;;;11.05;41.46;102463.22;5094386;28;19970;-35
2024/01/11 09:28:03;;;;;;;;;;;11.00;38.50;;;11.03;42.01;102469.56;5094183;28;19985;-36
2024/01/11 09:30:31;;;;;;;;;;;11.00;38.50;;;11.02;41.89;102465.22;5085379;28;19924;-35
2024/01/11 09:32:59;;;;;;;;;;;10.90;38.50;;;11.02;41.79;102465.22;5094166;28;19924;-36
2024/01/11 09:35:28;;;;;;;;;;;10.90;38.50;;;11.01;41.86;102470.91;5093664;28;19990;-35
2024/01/11 09:37:56;;;;;;;;;;;10.90;38.50;;;11.02;41.72;102469.31;5094132;28;19981;-35
2024/01/11 09:40:24;;;;;;;;;;;10.90;38.50;;;11.05;42.11;102463.22;5093428;28;19930;-36
2024/01/11 09:42:52;;;;;;;;;;;11.00;38.60;;;11.09;41.52;102478.06;5093788;28;19946;-37
2024/01/11 09:45:20;;;;;;;;;;;11.00;38.60;;;11.18;41.47;102481.09;5092254;28;19924;-36
2024/01/11 09:47:48;;;;;;;;;;;11.00;38.50;;;11.27;41.74;102480.00;5093458;28;19924;-36
2024/01/11 09:50:17;;;;;;;;;;;11.10;38.30;;;11.35;41.10;102476.19;5092980;28;19935;-35
2024/01/11 09:52:48;;;;;;;;;;;11.20;38.30;;;11.39;41.43;102468.44;5093491;28;20311;-35
2024/01/11 09:55:16;;;;;;;;;;;11.30;38.20;;;11.44;41.42;102462.56;5093387;28;19994;-36
2024/01/11 09:57:45;;;;;;;;;;;11.30;38.00;;;11.52;40.94;102469.69;5093539;28;20010;-36
2024/01/11 10:00:14;;;;;;;;;;;11.40;38.10;;;11.54;40.91;102478.38;5092507;28;19924;-36
2024/01/11 10:02:42;;;;;;;;;;;11.40;37.90;;;11.55;41.28;102482.72;5093302;28;20292;-35
2024/01/11 10:05:10;;;;;;;;;;;11.40;37.90;;;11.59;41.00;102474.97;5093122;28;19924;-35
2024/01/11 10:07:41;;;;;;;;;;;11.40;38.00;;;11.55;40.78;102463.56;5093178;28;20398;-35
2024/01/11 10:10:10;;;;;;;;;;;11.40;38.00;;;11.53;41.13;102469.91;5092605;28;19963;-35
2024/01/11 10:12:38;;;;;;;;;;;11.40;38.00;;;11.48;41.46;102459.84;5093245;28;19959;-36
2024/01/11 10:15:09;;;;;;;;;;;11.40;38.10;;;11.44;41.45;102452.53;5093503;28;20003;-36
2024/01/11 10:17:37;;;;;;;;;;;11.30;38.10;;;11.40;41.88;102458.66;5093092;28;20372;-35
2024/01/11 10:20:10;;;;;;;;;;;11.30;38.30;;;11.36;41.38;102437.88;5092560;28;19947;-35
2024/01/11 10:22:38;;;;;;;;;;;11.30;38.40;;;11.32;41.43;102443.09;5085461;28;19924;-36
2024/01/11 10:25:13;;;;;;;;;;;11.20;38.40;;;11.29;41.25;102446.97;5092434;28;19964;-35
2024/01/11 10:27:42;;;;;;;;;;;11.20;38.40;;;11.27;41.76;102452.41;5085580;28;20356;-36
2024/01/11 10:30:12;;;;;;;;;;;11.20;38.50;;;11.25;41.77;102444.63;5091984;28;20011;-36
2024/01/11 10:32:41;;;;;;;;;;;11.10;38.50;;;11.26;41.52;102446.47;5092460;28;19924;-36
2024/01/11 10:35:09;;;;;;;;;;;11.20;38.60;;;11.29;41.54;102451.97;5092578;28;19935;-36
2024/01/11 10:37:38;;;;;;;;;;;11.20;38.70;;;11.31;41.80;102444.69;5092451;28;19924;-36
2024/01/11 10:40:12;;;;;;;;;;;11.20;38.70;;;11.39;41.47;102423.28;5092174;28;19931;-36
2024/01/11 10:42:43;;;;;;;;;;;11.20;38.60;;;11.50;41.22;102413.31;5085188;28;19924;-35
2024/01/11 10:45:15;;;;;;;;;;;11.30;38.50;;;11.53;41.32;102428.84;5092579;28;20014;-36
2024/01/11 10:47:50;;;;;;;;;;;11.40;38.40;;;11.57;41.27;102426.16;5092486;28;19924;-35
2024/01/11 10:50:19;;;;;;;;;;;11.50;38.30;;;11.60;40.85;102436.63;5091800;28;19966;-36
2024/01/11 10:52:55;;;;;;;;;;;11.50;38.10;;;11.68;41.47;102431.22;5092515;28;20303;-36
2024/01/11 10:55:23;;;;;;;;;;;11.50;38.10;;;11.69;41.19;102431.44;5092402;28;20305;-35
2024/01/11 10:57:52;;;;;;;;;;;11.50;38.10;;;11.71;41.23;102434.16;5092417;28;19924;-36
2024/01/11 11:00:20;;;;;;;;;;;11.60;38.20;;;11.71;41.22;102431.66;5091669;28;20003;-36
2024/01/11 11:02:50;;;;;;;;;;;11.60;38.10;;;11.70;40.98;102430.75;5092335;28;20015;-36
2024/01/11 11:05:19;;;;;;;;;;;11.60;38.10;;;11.68;40.70;102418.66;5092487;28;20023;-36
2024/01/11 11:07:47;;;;;;;;;;;11.60;38.20;;;11.64;41.07;102419.75;5092524;28;19935;-36
2024/01/11 11:10:15;;;;;;;;;;;11.50;38.10;;;11.62;41.56;102420.22;5091771;28;19924;-37
2024/01/11 11:12:43;;;;;;;;;;;11.50;38.20;;;11.60;41.96;102426.59;5092374;28;19930;-36
2024/01/11 11:15:13;;;;;;;;;;;11.50;38.30;;;11.56;41.12;102431.84;5091676;28;20383;-36